Time;durP1;ratioP1;P1;durP2;ratioP2;P2;SDS_P1;SDS_P2;PMS_P1;PMS_P2;Temp;Humidity;BMP_temperature;BMP_pressure;BME280_temperature;BME280_humidity;BME280_pressure;Samples;Min_cycle;Max_cycle;Signal;HPM_P1;HPM_P2
2022/11/15 00:00:52;;;;;;;6.50;2.30;;;8.50;99.90;;;7.86;100.00;97058.84;4947264;28;20450;-48
2022/11/15 00:03:22;;;;;;;2.97;2.15;;;8.50;99.90;;;7.90;100.00;97050.00;4949903;28;20311;-51
2022/11/15 00:05:48;;;;;;;4.18;2.03;;;8.60;99.90;;;7.88;100.00;97041.28;4949358;28;20183;-49
2022/11/15 00:08:13;;;;;;;3.08;2.15;;;8.60;99.90;;;7.92;100.00;97046.41;4950076;28;20122;-51
2022/11/15 00:10:39;;;;;;;6.05;2.35;;;8.60;99.90;;;7.92;100.00;97049.03;4947252;28;20158;-53
2022/11/15 00:13:11;;;;;;;4.00;2.15;;;8.60;99.90;;;7.89;100.00;97049.09;4944058;28;20077;-52
2022/11/15 00:15:39;;;;;;;3.20;2.13;;;8.60;99.90;;;7.88;100.00;97043.91;4943877;28;20081;-49
2022/11/15 00:18:06;;;;;;;4.18;2.22;;;8.60;99.90;;;7.84;100.00;97045.75;4943962;28;20105;-53
2022/11/15 00:20:35;;;;;;;3.78;2.10;;;8.50;99.90;;;7.80;100.00;97038.91;4944115;28;20062;-49
2022/11/15 00:23:04;;;;;;;4.78;2.45;;;8.50;99.90;;;7.73;100.00;97032.97;4944462;28;21197;-51
2022/11/15 00:25:30;;;;;;;2.88;2.00;;;8.50;99.90;;;7.77;100.00;97042.50;4944772;28;20078;-53
2022/11/15 00:27:57;;;;;;;6.72;2.80;;;8.50;99.90;;;7.78;100.00;97043.34;4948686;28;20057;-52
2022/11/15 00:30:23;;;;;;;5.57;2.85;;;8.50;99.90;;;7.83;100.00;97044.06;4944932;28;20035;-51
2022/11/15 00:32:50;;;;;;;3.25;2.13;;;8.50;99.90;;;7.86;100.00;97032.59;4948133;28;20105;-49
2022/11/15 00:35:15;;;;;;;4.57;2.60;;;8.50;99.90;;;7.88;100.00;97028.16;4952264;28;20492;-49
2022/11/15 00:37:41;;;;;;;3.00;2.20;;;8.60;99.90;;;7.93;100.00;97028.88;4948900;28;20035;-51
2022/11/15 00:40:08;;;;;;;4.90;2.70;;;8.60;99.90;;;7.91;100.00;97023.66;4954589;28;20499;-51
2022/11/15 00:42:34;;;;;;;5.07;2.17;;;8.60;99.90;;;7.96;100.00;97023.53;4952634;28;20034;-52
2022/11/15 00:45:00;;;;;;;4.20;2.40;;;8.70;99.90;;;7.99;100.00;97023.44;4953858;28;20476;-51
2022/11/15 00:47:25;;;;;;;2.45;1.65;;;8.70;99.90;;;8.05;100.00;97022.38;4953803;28;20039;-49
2022/11/15 00:49:51;;;;;;;3.85;1.95;;;8.70;99.90;;;8.09;100.00;97029.22;4951040;28;20488;-51
2022/11/15 00:52:17;;;;;;;7.75;2.38;;;8.80;99.90;;;8.07;100.00;97015.28;4951056;28;20213;-49
2022/11/15 00:54:43;;;;;;;5.85;2.33;;;8.80;99.90;;;8.11;100.00;97019.53;4950519;28;20511;-52
2022/11/15 00:57:08;;;;;;;4.18;2.35;;;8.80;99.90;;;8.13;100.00;97015.97;4946660;28;20920;-54
2022/11/15 00:59:34;;;;;;;5.03;1.60;;;8.80;99.90;;;8.16;100.00;97013.19;4950633;28;20049;-49
2022/11/15 01:02:01;;;;;;;3.13;2.10;;;8.80;99.90;;;8.13;100.00;97021.22;4959096;28;20871;-54
2022/11/15 01:04:26;;;;;;;2.65;1.90;;;8.80;99.90;;;8.12;100.00;97016.84;4957025;28;20050;-54
2022/11/15 01:06:52;;;;;;;2.92;1.75;;;8.80;99.90;;;8.12;100.00;97010.75;4958884;28;20046;-53
2022/11/15 01:09:18;;;;;;;2.72;1.80;;;8.80;99.90;;;8.10;100.00;97016.06;4949466;28;20398;-50
2022/11/15 01:11:43;;;;;;;3.22;1.67;;;8.80;99.90;;;8.10;100.00;97012.56;4946108;28;20046;-54
2022/11/15 01:14:09;;;;;;;3.03;1.83;;;8.70;99.90;;;8.04;100.00;97008.38;4944362;28;20508;-49
2022/11/15 01:16:35;;;;;;;6.82;1.90;;;8.70;99.90;;;7.99;100.00;97007.69;4942500;28;20038;-50
2022/11/15 01:19:00;;;;;;;2.05;1.80;;;8.70;99.90;;;7.89;100.00;97001.84;4945035;28;20125;-52
2022/11/15 01:21:26;;;;;;;3.92;1.70;;;8.60;99.90;;;7.76;100.00;96996.13;4947760;28;20033;-51
2022/11/15 01:23:56;;;;;;;2.42;1.77;;;8.50;99.90;;;7.66;100.00;96999.97;4953299;28;20048;-49
2022/11/15 01:26:23;;;;;;;4.15;2.03;;;8.40;99.90;;;7.56;100.00;97006.44;4951423;28;20062;-50
2022/11/15 01:28:49;;;;;;;3.05;1.88;;;8.30;99.90;;;7.45;100.00;97004.13;4950575;28;20089;-53
2022/11/15 01:31:20;;;;;;;4.40;1.73;;;8.20;99.90;;;7.33;100.00;96996.63;4957915;28;20031;-51
2022/11/15 01:33:46;;;;;;;4.40;2.00;;;8.10;99.90;;;7.32;100.00;97005.41;4952789;28;20035;-53
2022/11/15 01:36:16;;;;;;;3.65;2.00;;;8.00;99.90;;;7.26;100.00;96998.56;4952680;28;20058;-53
2022/11/15 01:38:43;;;;;;;2.53;1.65;;;8.00;99.90;;;7.24;100.00;96997.78;4950755;28;20501;-53
2022/11/15 01:41:22;;;;;;;3.25;1.90;;;7.90;99.90;;;7.19;100.00;96999.66;4949761;28;20086;-50
2022/11/15 01:44:17;;;;;;;3.78;2.10;;;7.90;99.90;;;7.10;100.00;97002.56;4944533;28;20109;-51
2022/11/15 01:46:47;;;;;;;4.03;1.95;;;7.80;99.90;;;7.01;100.00;97001.91;4946535;28;20461;-50
2022/11/15 01:49:20;;;;;;;3.40;2.08;;;7.70;99.90;;;6.96;100.00;96995.09;4943758;28;20069;-51
2022/11/15 01:51:46;;;;;;;3.53;2.08;;;7.60;99.90;;;6.95;100.00;96996.88;4936970;28;20042;-50
2022/11/15 01:54:16;;;;;;;3.10;1.80;;;7.60;99.90;;;6.88;100.00;96990.94;4939974;28;20493;-53
2022/11/15 01:56:54;;;;;;;6.18;2.17;;;7.60;99.90;;;6.87;100.00;96989.22;4942972;28;20567;-53
2022/11/15 01:59:20;;;;;;;3.15;2.05;;;7.50;99.90;;;6.83;100.00;96989.34;4954445;28;20070;-52
2022/11/15 02:01:46;;;;;;;4.15;1.98;;;7.50;99.90;;;6.82;100.00;96985.88;4944733;28;20030;-52
2022/11/15 02:04:28;;;;;;;3.67;2.08;;;7.50;99.90;;;6.84;100.00;96984.06;4942172;28;20130;-53
2022/11/15 02:06:54;;;;;;;4.30;1.97;;;7.50;99.90;;;6.91;100.00;96978.63;4938576;28;20070;-54
2022/11/15 02:09:20;;;;;;;3.80;2.15;;;7.60;99.90;;;7.03;100.00;96984.41;4940588;28;20674;-51
2022/11/15 02:11:48;;;;;;;2.80;1.83;;;7.70;99.90;;;7.12;100.00;96975.38;4936121;28;20452;-51
2022/11/15 02:14:18;;;;;;;2.42;1.80;;;7.80;99.90;;;7.18;100.00;96974.38;4936750;28;20110;-53
2022/11/15 02:16:55;;;;;;;3.50;1.90;;;7.90;99.90;;;7.21;100.00;96969.00;4931024;28;20081;-52
2022/11/15 02:19:33;;;;;;;5.20;2.05;;;7.90;99.90;;;7.19;100.00;96970.81;4939237;28;20067;-52
2022/11/15 02:23:10;;;;;;;3.38;1.90;;;7.90;99.90;;;7.16;100.00;96956.03;4942540;28;20117;-51
2022/11/15 02:25:57;;;;;;;2.60;1.92;;;7.80;99.90;;;7.17;100.00;96959.53;4940586;28;20055;-52
2022/11/15 02:28:40;;;;;;;3.38;1.90;;;7.90;99.90;;;7.19;100.00;96955.09;4944366;28;20058;-54
2022/11/15 02:31:49;;;;;;;2.40;1.70;;;7.90;99.90;;;7.24;100.00;96955.81;4940785;28;20067;-54
2022/11/15 02:35:18;;;;;;;3.58;1.63;;;7.90;99.90;;;7.26;100.00;96946.97;4945002;28;20480;-56
2022/11/15 02:37:58;;;;;;;3.42;1.98;;;8.00;99.90;;;7.24;100.00;96935.66;4946440;28;20045;-54
2022/11/15 02:40:39;;;;;;;5.07;1.85;;;7.90;99.90;;;7.20;100.00;96941.06;4955357;28;20074;-54
2022/11/15 02:49:17;;;;;;;2.80;2.05;;;7.90;99.90;;;7.12;100.00;96937.81;4942596;28;20105;-51
2022/11/15 02:51:45;;;;;;;3.05;2.05;;;7.80;99.90;;;7.07;100.00;96927.50;4934990;28;20062;-56
2022/11/15 02:54:32;;;;;;;3.83;1.77;;;7.80;99.90;;;7.11;100.00;96925.63;4935887;28;20591;-54
2022/11/15 02:57:05;;;;;;;3.35;1.70;;;7.80;99.90;;;7.03;100.00;96918.84;4936501;28;20031;-50
2022/11/15 02:59:55;;;;;;;2.08;1.65;;;7.80;99.90;;;7.13;100.00;96929.06;4941330;28;20035;-54
2022/11/15 03:03:07;;;;;;;2.85;1.70;;;7.80;99.90;;;7.13;100.00;96929.06;4944984;28;20279;-51
2022/11/15 03:05:53;;;;;;;3.15;1.80;;;7.80;99.90;;;7.06;100.00;96916.13;4933784;28;20141;-54
2022/11/15 03:09:04;;;;;;;7.53;1.90;;;7.80;99.90;;;7.00;100.00;96915.44;4938260;28;20035;-54
2022/11/15 03:11:36;;;;;;;3.28;1.83;;;7.70;99.90;;;6.88;100.00;96912.28;4941041;28;20074;-52
2022/11/15 03:14:32;;;;;;;4.05;2.05;;;7.60;99.90;;;6.76;100.00;96912.66;4936262;28;20030;-55
2022/11/15 03:17:24;;;;;;;2.92;1.90;;;7.50;99.90;;;6.67;100.00;96913.78;4942569;28;20126;-55
2022/11/15 03:19:56;;;;;;;3.10;1.77;;;7.40;99.90;;;6.58;100.00;96910.56;4930305;28;20031;-56
2022/11/15 03:22:26;;;;;;;2.30;1.70;;;7.30;99.90;;;6.53;100.00;96910.69;4940818;28;21327;-54
2022/11/15 03:25:00;;;;;;;4.32;1.95;;;7.20;99.90;;;6.44;100.00;96900.50;4937502;28;20117;-55
2022/11/15 03:27:33;;;;;;;2.90;2.10;;;7.20;99.90;;;6.44;100.00;96909.22;4940521;28;20090;-55
2022/11/15 03:30:04;;;;;;;2.90;1.70;;;7.20;99.90;;;6.45;100.00;96907.44;4941861;28;20448;-56
2022/11/15 03:32:36;;;;;;;4.93;1.83;;;7.20;99.90;;;6.45;100.00;96902.22;4945024;28;20572;-54
2022/11/15 03:35:08;;;;;;;3.95;2.03;;;7.20;99.90;;;6.47;100.00;96908.25;4972330;23;20046;-41
2022/11/15 03:37:39;;;;;;;5.07;1.85;;;7.20;99.90;;;6.48;100.00;96902.13;4960654;28;20030;-41
2022/11/15 03:40:06;;;;;;;3.30;1.80;;;7.20;99.90;;;6.46;100.00;96894.31;4952365;28;20033;-41
2022/11/15 03:42:59;;;;;;;3.47;1.52;;;7.20;99.90;;;6.45;100.00;96870.78;4958262;28;20050;-41
2022/11/15 03:45:46;;;;;;;5.50;1.83;;;7.20;99.90;;;6.45;100.00;96869.00;4946698;28;20061;-41
2022/11/15 03:48:20;;;;;;;3.45;2.10;;;7.20;99.90;;;6.54;100.00;96875.75;4947203;28;20039;-41
2022/11/15 03:50:47;;;;;;;3.28;1.85;;;7.30;99.90;;;6.57;100.00;96877.41;4941803;28;20035;-40
2022/11/15 03:53:13;;;;;;;2.80;1.67;;;7.30;99.90;;;6.59;100.00;96884.34;4927025;28;20250;-41
2022/11/15 03:55:38;;;;;;;5.05;1.60;;;7.30;99.90;;;6.64;100.00;96881.56;4963537;28;20310;-41
2022/11/15 03:58:04;;;;;;;3.42;1.60;;;7.40;99.90;;;6.73;100.00;96881.31;4943702;28;20031;-41
2022/11/15 04:00:30;;;;;;;3.42;1.95;;;7.40;99.90;;;6.78;100.00;96876.78;4942520;28;20034;-41
2022/11/15 04:02:56;;;;;;;1.92;1.48;;;7.50;99.90;;;6.84;100.00;96873.13;4943914;28;20497;-41
2022/11/15 04:05:22;;;;;;;2.78;1.52;;;7.60;99.90;;;6.91;100.00;96873.78;4943549;28;20039;-41
2022/11/15 04:07:47;;;;;;;2.80;1.83;;;7.60;99.90;;;6.95;100.00;96873.66;4943381;28;21063;-41
2022/11/15 04:10:14;;;;;;;2.40;1.63;;;7.70;99.90;;;6.97;100.00;96866.59;4941719;28;20035;-41
2022/11/15 04:12:43;;;;;;;2.17;1.65;;;7.70;99.90;;;7.08;100.00;96876.75;4945751;28;20513;-41
2022/11/15 04:15:18;;;;;;;2.13;1.70;;;7.80;99.90;;;7.13;100.00;96881.84;4943056;28;20036;-41
2022/11/15 04:17:52;;;;;;;3.88;1.90;;;7.90;99.90;;;7.15;100.00;96870.41;4947101;28;20059;-41
2022/11/15 04:26:14;;;;;;;2.45;1.60;;;8.00;99.90;;;7.36;100.00;96870.63;4941982;28;20038;-41
2022/11/15 04:29:33;;;;;;;4.10;1.83;;;8.10;99.90;;;7.41;100.00;96873.94;4951744;28;20034;-41
2022/11/15 04:31:26;;;;;;;1.52;1.30;;;8.10;99.90;;;7.47;100.00;96879.00;4943733;28;20488;-41
2022/11/15 04:33:52;;;;;;;4.25;1.70;;;8.20;99.90;;;7.49;100.00;96866.69;4944140;28;20039;-41
2022/11/15 04:39:03;;;;;;;3.15;1.30;;;8.20;99.90;;;7.55;100.00;96865.63;4946012;28;20150;-41
2022/11/15 04:41:29;;;;;;;2.72;1.55;;;8.30;99.90;;;7.55;100.00;96865.63;4946477;28;20043;-41
2022/11/15 04:43:55;;;;;;;2.10;1.70;;;8.30;99.90;;;7.50;100.00;96857.91;4943699;28;20254;-41
2022/11/15 04:46:21;;;;;;;3.55;1.73;;;8.20;99.90;;;7.41;100.00;96860.81;4938560;28;20061;-41
2022/11/15 04:48:47;;;;;;;2.67;1.58;;;8.10;99.90;;;7.29;100.00;96859.47;4937119;28;20110;-41
2022/11/15 04:51:13;;;;;;;2.95;1.50;;;8.00;99.90;;;7.14;100.00;96852.97;4936752;28;20633;-41
2022/11/15 04:53:38;;;;;;;2.92;1.60;;;7.90;99.90;;;7.07;100.00;96849.69;4936846;28;20070;-42
2022/11/15 04:56:04;;;;;;;2.30;1.45;;;7.80;99.90;;;6.98;100.00;96855.22;4938006;28;20176;-41
2022/11/15 04:58:30;;;;;;;2.45;1.55;;;7.70;99.90;;;6.83;100.00;96847.81;4941909;28;20038;-41
2022/11/15 05:00:56;;;;;;;1.92;1.52;;;7.60;99.90;;;6.76;100.00;96854.16;4945553;28;20039;-41
2022/11/15 05:06:06;;;;;;;2.60;1.63;;;7.40;99.90;;;6.59;100.00;96847.66;4949191;28;20376;-41
2022/11/15 05:08:32;;;;;;;3.45;2.03;;;7.30;99.90;;;6.58;100.00;96842.47;4942179;28;20061;-41
2022/11/15 05:10:58;;;;;;;5.28;2.15;;;7.30;99.90;;;6.55;100.00;96835.56;4936726;28;20731;-41
2022/11/15 05:13:23;;;;;;;5.28;2.40;;;7.30;99.90;;;6.60;100.00;96843.28;4941622;28;20030;-41
2022/11/15 05:15:49;;;;;;;4.47;2.53;;;7.30;99.90;;;6.59;100.00;96834.56;4940408;28;20128;-41
2022/11/15 05:18:15;;;;;;;5.55;2.65;;;7.30;99.90;;;6.58;100.00;96830.22;4942369;28;20035;-41
2022/11/15 05:20:41;;;;;;;4.03;2.33;;;7.30;99.90;;;6.59;100.00;96828.47;4938379;28;20662;-42
2022/11/15 05:23:06;;;;;;;4.25;2.42;;;7.30;99.90;;;6.57;100.00;96823.28;4939172;28;20108;-41
2022/11/15 05:25:32;;;;;;;7.03;2.95;;;7.30;99.90;;;6.40;100.00;96815.06;4942546;28;20039;-41
2022/11/15 05:27:58;;;;;;;8.45;2.97;;;7.30;99.90;;;6.51;100.00;96826.06;4944372;28;20049;-41
2022/11/15 05:30:24;;;;;;;6.65;2.80;;;7.30;99.90;;;6.57;100.00;96836.38;4926081;28;20130;-41
2022/11/15 05:32:50;;;;;;;5.72;2.60;;;7.30;99.90;;;6.55;100.00;96824.19;4927795;28;20054;-41
2022/11/15 05:35:33;;;;;;;6.75;2.70;;;7.30;99.90;;;6.64;100.00;96827.44;4935956;28;20031;-41
2022/11/15 05:37:59;;;;;;;5.95;2.55;;;7.30;99.90;;;6.73;100.00;96820.16;4948770;28;20038;-41
2022/11/15 05:40:26;;;;;;;3.45;2.30;;;7.40;99.90;;;6.77;100.00;96822.66;4948383;28;20223;-41
2022/11/15 05:42:53;;;;;;;3.63;1.90;;;7.50;99.90;;;6.84;100.00;96815.47;4942437;28;20027;-41
2022/11/15 05:45:18;;;;;;;3.67;1.77;;;7.60;99.90;;;6.89;100.00;96818.78;4956444;28;20027;-41
2022/11/15 05:47:45;;;;;;;2.63;1.33;;;7.60;99.90;;;6.93;100.00;96815.19;4943748;28;20089;-41
2022/11/15 05:50:14;;;;;;;1.80;1.50;;;7.60;99.90;;;6.96;100.00;96816.81;4942427;28;20074;-41
2022/11/15 05:52:39;;;;;;;2.17;1.40;;;7.70;99.90;;;6.87;100.00;96797.00;4939954;28;20158;-42
2022/11/15 05:55:08;;;;;;;3.67;1.60;;;7.60;99.90;;;6.99;100.00;96809.72;4947635;28;20802;-41
2022/11/15 05:57:34;;;;;;;1.40;1.20;;;7.70;99.90;;;6.98;100.00;96807.16;4943474;28;20031;-41
2022/11/15 06:00:01;;;;;;;2.63;1.35;;;7.70;99.90;;;7.06;100.00;96818.25;4944390;28;20088;-41
2022/11/15 06:02:26;;;;;;;2.03;1.50;;;7.80;99.90;;;7.07;100.00;96819.97;4938168;28;20057;-42
2022/11/15 06:04:52;;;;;;;2.83;1.50;;;7.80;99.90;;;7.05;100.00;96814.78;4943924;28;20511;-41
2022/11/15 06:07:18;;;;;;;2.60;1.40;;;7.80;99.90;;;7.04;100.00;96818.31;4944139;28;20069;-41
2022/11/15 06:09:43;;;;;;;2.45;1.48;;;7.80;99.90;;;7.01;100.00;96810.53;4923827;28;20035;-41
2022/11/15 06:12:09;;;;;;;2.70;1.40;;;7.80;99.90;;;7.05;100.00;96816.53;4933551;28;21166;-41
2022/11/15 06:14:35;;;;;;;2.45;1.38;;;7.80;99.90;;;7.06;100.00;96813.00;4946694;28;20041;-41
2022/11/15 06:17:01;;;;;;;1.98;1.20;;;7.80;99.90;;;7.06;100.00;96828.75;4951156;28;20453;-41
2022/11/15 06:19:27;;;;;;;2.25;1.30;;;7.80;99.90;;;7.02;100.00;96822.75;4954292;28;20499;-41
2022/11/15 06:21:53;;;;;;;2.08;1.63;;;7.80;99.90;;;6.96;100.00;96817.69;4949535;28;20043;-41
2022/11/15 06:24:18;;;;;;;3.25;1.40;;;7.70;99.90;;;6.97;100.00;96827.28;4951634;28;20038;-40
2022/11/15 06:26:44;;;;;;;3.95;1.60;;;7.70;99.90;;;6.96;100.00;96824.69;4948001;28;20046;-41
2022/11/15 06:29:10;;;;;;;3.63;1.52;;;7.70;99.90;;;6.95;100.00;96823.84;4944392;28;20484;-41
2022/11/15 06:31:35;;;;;;;2.50;1.48;;;7.60;99.90;;;6.90;100.00;96825.75;4946086;28;20027;-41
2022/11/15 06:34:01;;;;;;;2.70;1.60;;;7.60;99.90;;;6.93;100.00;96825.66;4955087;28;20143;-40
2022/11/15 06:36:27;;;;;;;3.70;1.60;;;7.60;99.90;;;6.94;100.00;96826.50;4952750;28;20035;-41
2022/11/15 06:38:52;;;;;;;3.33;1.80;;;7.70;99.90;;;6.96;100.00;96817.69;4953479;28;20042;-41
2022/11/15 06:41:18;;;;;;;2.85;1.60;;;7.70;99.90;;;7.01;100.00;96822.78;4951255;28;20030;-41
2022/11/15 06:43:44;;;;;;;1.98;1.58;;;7.70;99.90;;;7.02;100.00;96821.91;4950941;28;20117;-41
2022/11/15 06:46:10;;;;;;;2.70;1.50;;;7.70;99.90;;;7.05;100.00;96830.53;4947337;28;20117;-41
2022/11/15 06:48:36;;;;;;;3.00;1.70;;;7.80;99.90;;;7.07;100.00;96827.84;4947135;28;22112;-40
2022/11/15 06:51:04;;;;;;;3.10;1.77;;;7.80;99.90;;;7.07;100.00;96827.84;4949263;28;20100;-41
2022/11/15 06:53:30;;;;;;;2.70;1.73;;;7.80;99.90;;;7.05;100.00;96827.91;4948393;28;20137;-41
2022/11/15 06:56:02;;;;;;;4.28;2.28;;;7.80;99.90;;;7.08;100.00;96838.25;4946086;28;20070;-41
2022/11/15 06:58:28;;;;;;;5.60;2.22;;;7.80;99.90;;;7.13;100.00;96838.13;4950904;28;20121;-42
2022/11/15 07:00:59;;;;;;;3.90;2.13;;;7.80;99.90;;;7.15;100.00;96840.72;4953154;28;20038;-41
2022/11/15 07:03:25;;;;;;;3.22;1.83;;;7.90;99.90;;;7.19;100.00;96842.31;4956822;28;20046;-41
2022/11/15 07:05:54;;;;;;;3.10;2.17;;;7.90;99.90;;;7.11;100.00;96815.50;4949696;28;20081;-41
2022/11/15 07:08:20;;;;;;;4.80;2.10;;;8.00;99.90;;;7.32;100.00;96846.28;4945265;28;20296;-41
2022/11/15 07:10:46;;;;;;;3.53;2.10;;;8.00;99.90;;;7.40;100.00;96856.50;4947497;28;20436;-41
2022/11/15 07:13:11;;;;;;;4.97;2.38;;;8.10;99.90;;;7.48;100.00;96845.75;4947708;28;20031;-41
2022/11/15 07:15:37;;;;;;;4.07;2.28;;;8.20;99.90;;;7.54;100.00;96835.91;4950439;28;20031;-41
2022/11/15 07:18:03;;;;;;;5.45;2.28;;;8.30;99.90;;;7.64;100.00;96842.56;4956471;28;20030;-41
2022/11/15 07:20:29;;;;;;;5.07;2.38;;;8.40;99.90;;;7.72;100.00;96847.53;4955634;28;20428;-42
2022/11/15 07:23:03;;;;;;;4.13;2.47;;;8.40;99.90;;;7.83;100.00;96847.19;4957393;28;20100;-41
2022/11/15 07:25:29;;;;;;;4.10;2.20;;;8.50;99.90;;;7.91;100.00;96853.00;4954173;28;20038;-41
2022/11/15 07:27:56;;;;;;;3.92;2.20;;;8.60;99.90;;;8.02;100.00;96848.25;4955392;28;20030;-41
2022/11/15 07:30:22;;;;;;;3.10;2.00;;;8.80;99.90;;;8.20;100.00;96844.09;4953906;28;20035;-41
2022/11/15 07:32:56;;;;;;;5.22;1.98;;;8.90;99.90;;;8.39;100.00;96843.41;4953135;28;20507;-41
2022/11/15 07:35:23;;;;;;;3.35;2.00;;;9.10;99.90;;;8.56;100.00;96845.44;4955219;28;20031;-41
2022/11/15 07:38:00;;;;;;;4.40;1.80;;;9.20;99.90;;;8.73;100.00;96842.19;4954729;28;20271;-41
2022/11/15 07:40:28;;;;;;;3.08;1.98;;;9.40;99.90;;;8.95;100.00;96837.81;4952908;28;20030;-41
2022/11/15 07:43:03;;;;;;;6.07;2.60;;;9.60;99.90;;;9.14;100.00;96839.69;4954233;28;20027;-41
2022/11/15 07:45:29;;;;;;;4.93;2.22;;;9.80;99.90;;;9.35;100.00;96833.56;4951497;28;20555;-41
2022/11/15 07:47:56;;;;;;;4.20;2.58;;;10.00;99.90;;;9.54;100.00;96836.28;4950595;28;20045;-40
2022/11/15 07:50:23;;;;;;;6.43;2.40;;;10.20;99.90;;;9.67;100.00;96836.63;4953986;28;20113;-41
2022/11/15 07:52:58;;;;;;;4.43;1.95;;;10.40;99.90;;;9.82;100.00;96829.00;4955415;28;20509;-41
2022/11/15 07:55:27;;;;;;;3.53;1.92;;;10.50;99.90;;;9.86;100.00;96820.88;4955862;28;20034;-41
2022/11/15 07:57:53;;;;;;;5.10;1.77;;;10.60;99.90;;;9.92;100.00;96825.91;4954449;28;20034;-41
2022/11/15 08:00:19;;;;;;;3.80;2.08;;;10.60;99.90;;;9.97;100.00;96822.22;4949468;28;20080;-41
2022/11/15 08:02:45;;;;;;;3.58;1.98;;;10.60;99.90;;;10.08;100.00;96835.75;4955306;28;20134;-40
2022/11/15 08:05:11;;;;;;;8.27;1.95;;;10.70;99.90;;;10.15;100.00;96823.19;4954469;28;20480;-39
2022/11/15 08:07:37;;;;;;;2.88;1.90;;;10.80;99.90;;;10.22;100.00;96816.72;4957752;28;20533;-39
2022/11/15 08:10:05;;;;;;;3.47;1.65;;;10.80;99.90;;;10.34;100.00;96818.81;4957173;28;20503;-39
2022/11/15 08:12:31;;;;;;;5.65;2.00;;;11.00;99.90;;;10.40;100.00;96818.53;4955335;28;20027;-39
2022/11/15 08:14:57;;;;;;;3.92;1.92;;;11.00;99.90;;;10.40;100.00;96815.06;4957822;28;20038;-39
2022/11/15 08:17:24;;;;;;;4.45;2.08;;;11.10;99.90;;;10.49;100.00;96812.00;4954473;28;20027;-39
2022/11/15 08:19:50;;;;;;;2.80;1.63;;;11.20;99.90;;;10.55;100.00;96797.66;4956022;28;20418;-39
2022/11/15 08:22:16;;;;;;;2.95;1.80;;;11.20;99.90;;;10.64;100.00;96808.66;4958357;28;20129;-39
2022/11/15 08:24:41;;;;;;;3.08;1.70;;;11.30;99.90;;;10.70;100.00;96813.63;4956668;28;20117;-39
2022/11/15 08:27:14;;;;;;;2.58;1.58;;;11.30;99.90;;;10.70;100.00;96805.72;4955349;28;20030;-37
2022/11/15 08:29:47;;;;;;;;;;;11.40;99.90;;;10.81;100.00;96805.22;4956848;28;20037;-37
2022/11/15 08:32:13;;;;;;;3.13;1.67;;;11.50;99.90;;;10.80;100.00;96806.16;4953532;28;20316;-39
2022/11/15 08:34:39;;;;;;;4.15;1.88;;;11.50;99.90;;;10.83;100.00;96806.00;4955091;28;20031;-39
2022/11/15 08:37:05;;;;;;;2.95;1.90;;;11.50;99.90;;;10.79;100.00;96801.81;4957386;28;20068;-39
2022/11/15 08:39:30;;;;;;;3.05;1.80;;;11.50;99.90;;;10.62;100.00;96776.25;4954961;28;20030;-39
2022/11/15 08:41:56;;;;;;;4.00;1.63;;;11.40;99.90;;;10.69;100.00;96790.84;4957368;28;20055;-39
2022/11/15 08:44:23;;;;;;;4.43;1.77;;;11.40;99.90;;;10.63;100.00;96785.00;4956453;28;21056;-37
2022/11/15 08:46:49;;;;;;;3.72;1.98;;;11.40;99.90;;;10.59;100.00;96792.19;4955543;28;20041;-39
2022/11/15 08:49:15;;;;;;;2.88;1.70;;;11.30;99.90;;;10.58;100.00;96790.47;4956259;28;20034;-39
2022/11/15 08:51:41;;;;;;;3.65;2.10;;;11.30;99.90;;;10.54;100.00;96772.25;4954841;28;20042;-39
2022/11/15 08:54:07;;;;;;;5.05;1.88;;;11.30;99.90;;;10.60;100.00;96766.66;4955154;28;20027;-37
2022/11/15 08:56:33;;;;;;;3.15;1.80;;;11.30;99.90;;;10.71;100.00;96777.56;4952993;28;20034;-37
2022/11/15 08:58:58;;;;;;;3.90;1.77;;;11.40;99.90;;;10.82;100.00;96777.03;4954002;28;20066;-37
2022/11/15 09:01:24;;;;;;;2.20;1.35;;;11.50;99.90;;;10.92;100.00;96772.19;4955864;28;20448;-38
2022/11/15 09:03:50;;;;;;;2.50;1.73;;;11.70;99.90;;;11.04;100.00;96782.16;4961009;28;20066;-37
2022/11/15 09:06:16;;;;;;;5.07;1.92;;;11.70;99.90;;;11.18;100.00;96774.44;4960400;28;20113;-37
2022/11/15 09:08:42;;;;;;;4.00;2.20;;;11.90;99.90;;;11.25;100.00;96777.59;4959212;28;20035;-37
2022/11/15 09:11:09;;;;;;;2.72;1.90;;;12.00;99.90;;;11.39;100.00;96785.69;4957589;28;20088;-37
2022/11/15 09:13:39;;;;;;;3.25;1.85;;;12.10;99.90;;;11.52;100.00;96779.78;4958669;28;20069;-37
2022/11/15 09:16:05;;;;;;;3.00;2.00;;;12.10;99.90;;;11.65;100.00;96776.44;4958012;28;20118;-38
2022/11/15 09:18:30;;;;;;;4.75;1.63;;;12.30;99.90;;;11.85;100.00;96770.13;4958571;28;20073;-37
2022/11/15 09:20:58;;;;;;;5.60;1.92;;;12.50;99.90;;;12.05;100.00;96776.19;4957999;28;20038;-37
2022/11/15 09:23:25;;;;;;;5.35;2.00;;;12.70;99.90;;;12.21;100.00;96776.25;4956699;28;20121;-37
2022/11/15 09:25:51;;;;;;;3.63;2.15;;;12.80;99.90;;;12.35;100.00;96775.50;4958535;28;20031;-37
2022/11/15 09:28:17;;;;;;;3.08;1.60;;;13.00;99.90;;;12.51;100.00;96776.38;4959443;28;20030;-37
2022/11/15 09:30:43;;;;;;;2.50;1.55;;;13.10;99.90;;;12.61;100.00;96771.44;4958006;28;20019;-37
2022/11/15 09:33:13;;;;;;;2.25;1.60;;;13.20;99.90;;;12.70;100.00;96773.56;4959954;28;20346;-37
2022/11/15 09:35:40;;;;;;;3.20;1.70;;;13.30;99.90;;;12.77;100.00;96780.22;4982237;23;20038;-37
2022/11/15 09:38:06;;;;;;;4.40;2.10;;;13.30;99.90;;;12.85;100.00;96768.34;4971419;28;20689;-37
2022/11/15 09:40:36;;;;;;;4.25;2.17;;;13.40;99.90;;;12.90;100.00;96771.59;4973733;28;20077;-37
2022/11/15 09:43:31;;;;;;;3.97;2.10;;;13.50;99.90;;;13.02;99.29;96772.72;4974015;28;20515;-37
2022/11/15 09:46:32;;;;;;;8.15;2.65;;;13.60;99.90;;;13.06;95.48;96769.78;4963390;28;21136;-39
2022/11/15 09:49:00;;;;;;;5.15;2.13;;;13.70;99.90;;;13.12;98.10;96760.66;4956017;28;20501;-37
2022/11/15 09:51:49;;;;;;;4.55;2.17;;;13.80;99.90;;;13.14;96.54;96756.13;4957865;28;20039;-37
2022/11/15 09:54:38;;;;;;;3.80;2.35;;;13.80;99.90;;;13.21;97.25;96760.13;4952650;28;20062;-38
2022/11/15 09:57:10;;;;;;;3.67;2.13;;;13.90;99.90;;;13.36;98.70;96756.59;4955465;28;20512;-37
2022/11/15 09:59:54;;;;;;;3.50;2.05;;;14.00;99.90;;;13.50;92.67;96757.63;4956762;28;20031;-37
2022/11/15 10:02:53;;;;;;;3.70;2.00;;;14.10;99.90;;;13.65;93.77;96753.19;4952992;28;20505;-37
2022/11/15 10:05:23;;;;;;;6.88;2.63;;;14.30;99.90;;;13.67;88.27;96752.13;4955336;28;20077;-37
2022/11/15 10:08:22;;;;;;;4.15;2.13;;;14.30;99.90;;;13.77;89.91;96744.50;4955445;28;20031;-38
2022/11/15 10:10:57;;;;;;;3.47;1.98;;;14.30;99.90;;;13.84;91.60;96737.91;4949974;28;20039;-37
2022/11/15 10:13:29;;;;;;;3.05;1.60;;;14.40;99.90;;;13.91;91.84;96741.03;4951092;28;20089;-37
2022/11/15 10:16:28;;;;;;;5.00;2.00;;;14.50;99.90;;;14.00;91.18;96737.81;4955195;28;20033;-37
2022/11/15 10:19:16;;;;;;;2.88;2.00;;;14.60;99.90;;;14.08;91.98;96729.38;4956322;28;20600;-37
2022/11/15 10:22:36;;;;;;;3.88;2.13;;;14.60;99.90;;;14.13;92.34;96740.56;4950787;28;20034;-37
2022/11/15 10:25:18;;;;;;;4.40;2.10;;;14.70;99.90;;;14.14;93.21;96731.69;4956528;28;20023;-37
2022/11/15 10:27:52;;;;;;;3.38;1.88;;;14.70;99.90;;;14.17;92.34;96720.84;4954084;28;20658;-37
2022/11/15 10:30:18;;;;;;;5.18;1.70;;;14.80;99.90;;;14.22;93.00;96720.59;4956242;28;20046;-37
2022/11/15 10:32:47;;;;;;;1.95;1.60;;;14.80;99.90;;;14.22;91.48;96715.28;4954711;28;20049;-37
2022/11/15 10:35:25;;;;;;;3.67;1.60;;;14.80;99.90;;;14.26;91.25;96720.28;4953412;28;20113;-37
2022/11/15 10:37:51;;;;;;;6.60;1.55;;;14.80;99.90;;;14.22;90.59;96712.63;4957462;28;20030;-37
2022/11/15 10:40:23;;;;;;;2.33;1.33;;;14.80;99.90;;;14.23;91.38;96706.34;4955030;28;20037;-38
2022/11/15 10:43:10;;;;;;;2.53;1.50;;;14.70;99.90;;;14.19;92.01;96708.34;4954428;28;20039;-37
2022/11/15 10:45:38;;;;;;;3.53;1.80;;;14.70;99.90;;;14.18;91.83;96708.47;4953806;28;20039;-38
2022/11/15 10:48:12;;;;;;;2.63;1.70;;;14.70;99.90;;;14.14;93.27;96699.84;4956288;28;20035;-37
2022/11/15 10:50:41;;;;;;;2.20;1.13;;;14.70;99.90;;;14.13;94.19;96693.69;4952371;28;20537;-37
2022/11/15 10:53:23;;;;;;;3.40;1.60;;;14.70;99.90;;;14.11;93.83;96690.28;4953481;28;20027;-38
2022/11/15 10:55:53;;;;;;;5.47;1.57;;;14.70;99.90;;;14.14;93.96;96686.59;4951221;28;20039;-37